sensor_id;sensor_type;location;lat;lon;timestamp;P1;durP1;ratioP1;P2;durP2;ratioP2
18296;SDS011;18066;52.106;5.534;2022-08-21T00:01:27;2.95;;;2.13;;
18296;SDS011;18066;52.106;5.534;2022-08-21T00:03:55;2.70;;;1.98;;
18296;SDS011;18066;52.106;5.534;2022-08-21T00:06:23;2.72;;;1.73;;
18296;SDS011;18066;52.106;5.534;2022-08-21T00:08:50;7.13;;;1.75;;
18296;SDS011;18066;52.106;5.534;2022-08-21T00:11:17;2.50;;;1.50;;
18296;SDS011;18066;52.106;5.534;2022-08-21T00:13:45;1.92;;;1.75;;
18296;SDS011;18066;52.106;5.534;2022-08-21T00:16:12;2.58;;;2.00;;
18296;SDS011;18066;52.106;5.534;2022-08-21T00:18:39;2.78;;;2.13;;
18296;SDS011;18066;52.106;5.534;2022-08-21T00:21:06;3.67;;;2.65;;
18296;SDS011;18066;52.106;5.534;2022-08-21T00:23:33;2.40;;;2.10;;
18296;SDS011;18066;52.106;5.534;2022-08-21T00:26:07;3.78;;;2.13;;
18296;SDS011;18066;52.106;5.534;2022-08-21T00:28:34;3.90;;;2.88;;
18296;SDS011;18066;52.106;5.534;2022-08-21T00:31:03;4.30;;;2.50;;
18296;SDS011;18066;52.106;5.534;2022-08-21T00:33:30;4.80;;;2.50;;
18296;SDS011;18066;52.106;5.534;2022-08-21T00:35:57;4.85;;;2.92;;
18296;SDS011;18066;52.106;5.534;2022-08-21T00:38:24;5.18;;;2.50;;
18296;SDS011;18066;52.106;5.534;2022-08-21T00:40:52;3.67;;;2.72;;
18296;SDS011;18066;52.106;5.534;2022-08-21T00:43:21;4.32;;;3.08;;
18296;SDS011;18066;52.106;5.534;2022-08-21T03:40:37;7.28;;;3.80;;
18296;SDS011;18066;52.106;5.534;2022-08-21T03:43:03;5.72;;;3.67;;
18296;SDS011;18066;52.106;5.534;2022-08-21T03:45:34;4.93;;;2.97;;
18296;SDS011;18066;52.106;5.534;2022-08-21T03:48:02;4.85;;;3.13;;
18296;SDS011;18066;52.106;5.534;2022-08-21T03:50:32;4.13;;;3.40;;
18296;SDS011;18066;52.106;5.534;2022-08-21T03:53:00;4.63;;;3.03;;
18296;SDS011;18066;52.106;5.534;2022-08-21T03:55:27;6.45;;;4.20;;
18296;SDS011;18066;52.106;5.534;2022-08-21T03:57:56;5.47;;;4.10;;
18296;SDS011;18066;52.106;5.534;2022-08-21T04:00:24;4.47;;;3.55;;
18296;SDS011;18066;52.106;5.534;2022-08-21T04:02:51;6.95;;;3.90;;
18296;SDS011;18066;52.106;5.534;2022-08-21T04:05:19;7.90;;;3.40;;
18296;SDS011;18066;52.106;5.534;2022-08-21T04:07:53;5.40;;;4.07;;
18296;SDS011;18066;52.106;5.534;2022-08-21T04:10:22;6.70;;;4.17;;
18296;SDS011;18066;52.106;5.534;2022-08-21T04:12:50;6.47;;;4.80;;
18296;SDS011;18066;52.106;5.534;2022-08-21T04:15:19;7.22;;;5.07;;
18296;SDS011;18066;52.106;5.534;2022-08-21T04:17:47;5.60;;;4.40;;
18296;SDS011;18066;52.106;5.534;2022-08-21T04:20:14;4.97;;;4.40;;
18296;SDS011;18066;52.106;5.534;2022-08-21T04:22:41;11.43;;;5.83;;
18296;SDS011;18066;52.106;5.534;2022-08-21T04:25:09;6.07;;;4.73;;
18296;SDS011;18066;52.106;5.534;2022-08-21T04:27:36;7.70;;;5.13;;
18296;SDS011;18066;52.106;5.534;2022-08-21T04:30:05;5.82;;;4.63;;
18296;SDS011;18066;52.106;5.534;2022-08-21T04:32:35;7.15;;;4.90;;
18296;SDS011;18066;52.106;5.534;2022-08-21T04:35:03;5.83;;;4.53;;
18296;SDS011;18066;52.106;5.534;2022-08-21T04:37:32;5.28;;;4.35;;
18296;SDS011;18066;52.106;5.534;2022-08-21T04:39:59;9.57;;;5.07;;
18296;SDS011;18066;52.106;5.534;2022-08-21T04:42:29;5.60;;;4.27;;
18296;SDS011;18066;52.106;5.534;2022-08-21T04:44:56;7.32;;;5.10;;
18296;SDS011;18066;52.106;5.534;2022-08-21T04:47:23;6.97;;;5.00;;
18296;SDS011;18066;52.106;5.534;2022-08-21T04:49:52;5.70;;;4.80;;
18296;SDS011;18066;52.106;5.534;2022-08-21T04:52:19;6.40;;;4.72;;
18296;SDS011;18066;52.106;5.534;2022-08-21T04:54:49;8.30;;;5.17;;
18296;SDS011;18066;52.106;5.534;2022-08-21T04:57:17;8.40;;;4.60;;
18296;SDS011;18066;52.106;5.534;2022-08-21T04:59:46;6.80;;;4.57;;
18296;SDS011;18066;52.106;5.534;2022-08-21T05:02:16;7.18;;;4.70;;
18296;SDS011;18066;52.106;5.534;2022-08-21T05:04:46;6.63;;;4.50;;
18296;SDS011;18066;52.106;5.534;2022-08-21T05:07:17;6.93;;;4.35;;
18296;SDS011;18066;52.106;5.534;2022-08-21T05:09:46;6.60;;;4.35;;
18296;SDS011;18066;52.106;5.534;2022-08-21T05:12:13;5.45;;;4.43;;
18296;SDS011;18066;52.106;5.534;2022-08-21T05:14:40;7.07;;;4.35;;
18296;SDS011;18066;52.106;5.534;2022-08-21T05:17:07;5.27;;;4.13;;
18296;SDS011;18066;52.106;5.534;2022-08-21T05:19:34;6.75;;;4.07;;
18296;SDS011;18066;52.106;5.534;2022-08-21T05:22:01;7.40;;;4.68;;
18296;SDS011;18066;52.106;5.534;2022-08-21T05:24:30;5.77;;;3.97;;
18296;SDS011;18066;52.106;5.534;2022-08-21T05:26:57;8.02;;;4.75;;
18296;SDS011;18066;52.106;5.534;2022-08-21T05:29:24;7.22;;;4.90;;
18296;SDS011;18066;52.106;5.534;2022-08-21T05:31:51;6.22;;;4.90;;
18296;SDS011;18066;52.106;5.534;2022-08-21T05:34:19;8.77;;;5.65;;
18296;SDS011;18066;52.106;5.534;2022-08-21T05:36:47;11.65;;;6.72;;
18296;SDS011;18066;52.106;5.534;2022-08-21T05:39:14;7.32;;;5.97;;
18296;SDS011;18066;52.106;5.534;2022-08-21T05:41:42;8.80;;;6.15;;
18296;SDS011;18066;52.106;5.534;2022-08-21T05:44:09;15.07;;;5.80;;
18296;SDS011;18066;52.106;5.534;2022-08-21T05:46:35;15.27;;;6.32;;
18296;SDS011;18066;52.106;5.534;2022-08-21T05:49:02;11.05;;;6.45;;
18296;SDS011;18066;52.106;5.534;2022-08-21T05:51:29;9.63;;;6.15;;
18296;SDS011;18066;52.106;5.534;2022-08-21T05:53:56;8.77;;;5.78;;
18296;SDS011;18066;52.106;5.534;2022-08-21T05:56:23;9.00;;;5.63;;
18296;SDS011;18066;52.106;5.534;2022-08-21T05:58:51;10.52;;;5.90;;
18296;SDS011;18066;52.106;5.534;2022-08-21T06:01:18;10.70;;;6.20;;
18296;SDS011;18066;52.106;5.534;2022-08-21T06:03:45;10.43;;;6.60;;
18296;SDS011;18066;52.106;5.534;2022-08-21T06:06:11;11.85;;;6.63;;
18296;SDS011;18066;52.106;5.534;2022-08-21T06:08:38;13.93;;;7.35;;
18296;SDS011;18066;52.106;5.534;2022-08-21T06:11:05;13.98;;;6.78;;
18296;SDS011;18066;52.106;5.534;2022-08-21T06:13:33;16.88;;;6.80;;
18296;SDS011;18066;52.106;5.534;2022-08-21T06:16:02;9.35;;;5.88;;
18296;SDS011;18066;52.106;5.534;2022-08-21T06:18:32;13.52;;;6.50;;
18296;SDS011;18066;52.106;5.534;2022-08-21T06:20:59;10.15;;;6.47;;
18296;SDS011;18066;52.106;5.534;2022-08-21T06:23:25;14.93;;;6.75;;
18296;SDS011;18066;52.106;5.534;2022-08-21T06:25:52;16.98;;;7.05;;
18296;SDS011;18066;52.106;5.534;2022-08-21T06:28:19;13.75;;;7.22;;
18296;SDS011;18066;52.106;5.534;2022-08-21T06:30:46;11.35;;;6.90;;
18296;SDS011;18066;52.106;5.534;2022-08-21T06:33:14;13.88;;;7.13;;
18296;SDS011;18066;52.106;5.534;2022-08-21T06:35:40;9.65;;;5.57;;
18296;SDS011;18066;52.106;5.534;2022-08-21T06:38:07;12.02;;;5.93;;
18296;SDS011;18066;52.106;5.534;2022-08-21T06:40:35;12.60;;;7.25;;
18296;SDS011;18066;52.106;5.534;2022-08-21T06:43:05;13.07;;;6.53;;
18296;SDS011;18066;52.106;5.534;2022-08-21T06:45:33;15.80;;;6.95;;
18296;SDS011;18066;52.106;5.534;2022-08-21T06:48:00;17.80;;;7.88;;
18296;SDS011;18066;52.106;5.534;2022-08-21T06:50:28;11.60;;;6.22;;
18296;SDS011;18066;52.106;5.534;2022-08-21T06:52:59;13.13;;;6.40;;
18296;SDS011;18066;52.106;5.534;2022-08-21T06:55:27;16.38;;;7.85;;
18296;SDS011;18066;52.106;5.534;2022-08-21T06:57:54;13.13;;;6.47;;
18296;SDS011;18066;52.106;5.534;2022-08-21T07:00:21;13.30;;;6.72;;
18296;SDS011;18066;52.106;5.534;2022-08-21T07:02:47;13.63;;;7.63;;
18296;SDS011;18066;52.106;5.534;2022-08-21T07:05:14;18.58;;;7.55;;
18296;SDS011;18066;52.106;5.534;2022-08-21T07:07:43;15.20;;;6.90;;
18296;SDS011;18066;52.106;5.534;2022-08-21T07:10:09;18.38;;;7.38;;
18296;SDS011;18066;52.106;5.534;2022-08-21T07:12:36;14.60;;;7.13;;
18296;SDS011;18066;52.106;5.534;2022-08-21T07:15:03;12.65;;;6.40;;
18296;SDS011;18066;52.106;5.534;2022-08-21T07:17:31;15.05;;;6.82;;
18296;SDS011;18066;52.106;5.534;2022-08-21T07:19:57;16.25;;;6.57;;
18296;SDS011;18066;52.106;5.534;2022-08-21T07:22:24;21.63;;;7.63;;
18296;SDS011;18066;52.106;5.534;2022-08-21T07:24:53;14.63;;;6.55;;
18296;SDS011;18066;52.106;5.534;2022-08-21T07:27:20;14.85;;;7.00;;
18296;SDS011;18066;52.106;5.534;2022-08-21T07:29:47;19.98;;;6.63;;
18296;SDS011;18066;52.106;5.534;2022-08-21T07:32:14;20.83;;;6.82;;
18296;SDS011;18066;52.106;5.534;2022-08-21T07:34:41;17.13;;;6.60;;
18296;SDS011;18066;52.106;5.534;2022-08-21T07:37:08;16.55;;;7.47;;
18296;SDS011;18066;52.106;5.534;2022-08-21T07:39:35;12.10;;;6.50;;
18296;SDS011;18066;52.106;5.534;2022-08-21T07:42:03;13.40;;;7.10;;
18296;SDS011;18066;52.106;5.534;2022-08-21T07:44:30;16.70;;;6.57;;
18296;SDS011;18066;52.106;5.534;2022-08-21T07:46:59;12.38;;;6.80;;
18296;SDS011;18066;52.106;5.534;2022-08-21T07:49:25;16.75;;;6.70;;
18296;SDS011;18066;52.106;5.534;2022-08-21T07:51:52;13.05;;;6.15;;
18296;SDS011;18066;52.106;5.534;2022-08-21T07:54:19;17.33;;;6.50;;
18296;SDS011;18066;52.106;5.534;2022-08-21T07:56:46;13.23;;;7.57;;
18296;SDS011;18066;52.106;5.534;2022-08-21T07:59:14;14.05;;;6.80;;
18296;SDS011;18066;52.106;5.534;2022-08-21T08:01:41;11.43;;;6.35;;
18296;SDS011;18066;52.106;5.534;2022-08-21T08:04:08;17.15;;;6.38;;
18296;SDS011;18066;52.106;5.534;2022-08-21T08:06:35;19.15;;;7.30;;
18296;SDS011;18066;52.106;5.534;2022-08-21T08:09:02;12.50;;;5.72;;
18296;SDS011;18066;52.106;5.534;2022-08-21T08:11:28;11.32;;;4.97;;
18296;SDS011;18066;52.106;5.534;2022-08-21T08:13:55;12.45;;;5.07;;
18296;SDS011;18066;52.106;5.534;2022-08-21T08:16:25;9.40;;;4.97;;
18296;SDS011;18066;52.106;5.534;2022-08-21T08:18:52;16.63;;;5.40;;
18296;SDS011;18066;52.106;5.534;2022-08-21T08:21:20;11.80;;;5.38;;
18296;SDS011;18066;52.106;5.534;2022-08-21T08:23:47;12.20;;;5.57;;
18296;SDS011;18066;52.106;5.534;2022-08-21T08:26:14;23.90;;;6.30;;
18296;SDS011;18066;52.106;5.534;2022-08-21T08:28:41;17.30;;;5.65;;
18296;SDS011;18066;52.106;5.534;2022-08-21T08:31:08;12.10;;;5.47;;
18296;SDS011;18066;52.106;5.534;2022-08-21T08:33:37;12.30;;;5.22;;
18296;SDS011;18066;52.106;5.534;2022-08-21T08:36:04;15.25;;;5.10;;
18296;SDS011;18066;52.106;5.534;2022-08-21T08:38:31;15.82;;;5.47;;
18296;SDS011;18066;52.106;5.534;2022-08-21T08:41:00;18.30;;;5.53;;
18296;SDS011;18066;52.106;5.534;2022-08-21T08:43:33;12.05;;;4.65;;
18296;SDS011;18066;52.106;5.534;2022-08-21T08:46:01;15.45;;;5.05;;
18296;SDS011;18066;52.106;5.534;2022-08-21T08:48:33;11.25;;;4.82;;
18296;SDS011;18066;52.106;5.534;2022-08-21T08:51:13;12.60;;;4.57;;
18296;SDS011;18066;52.106;5.534;2022-08-21T08:53:47;13.35;;;4.32;;
18296;SDS011;18066;52.106;5.534;2022-08-21T08:56:18;14.07;;;4.05;;
18296;SDS011;18066;52.106;5.534;2022-08-21T08:58:52;9.88;;;4.38;;
18296;SDS011;18066;52.106;5.534;2022-08-21T09:01:20;11.02;;;4.00;;
18296;SDS011;18066;52.106;5.534;2022-08-21T09:03:48;10.45;;;4.18;;
18296;SDS011;18066;52.106;5.534;2022-08-21T09:06:19;11.57;;;4.30;;
18296;SDS011;18066;52.106;5.534;2022-08-21T09:08:59;11.63;;;4.22;;
18296;SDS011;18066;52.106;5.534;2022-08-21T09:11:35;11.52;;;3.95;;
18296;SDS011;18066;52.106;5.534;2022-08-21T09:14:09;10.30;;;3.90;;
18296;SDS011;18066;52.106;5.534;2022-08-21T09:16:45;9.27;;;3.40;;
18296;SDS011;18066;52.106;5.534;2022-08-21T09:19:23;16.10;;;3.80;;
18296;SDS011;18066;52.106;5.534;2022-08-21T09:22:01;10.55;;;3.53;;
18296;SDS011;18066;52.106;5.534;2022-08-21T09:24:37;10.65;;;3.90;;
18296;SDS011;18066;52.106;5.534;2022-08-21T09:27:12;9.18;;;3.30;;
18296;SDS011;18066;52.106;5.534;2022-08-21T09:29:41;13.98;;;3.47;;
18296;SDS011;18066;52.106;5.534;2022-08-21T09:32:10;8.05;;;2.88;;
18296;SDS011;18066;52.106;5.534;2022-08-21T09:34:43;12.05;;;4.00;;
18296;SDS011;18066;52.106;5.534;2022-08-21T09:37:23;10.88;;;3.53;;
18296;SDS011;18066;52.106;5.534;2022-08-21T09:39:50;10.98;;;2.97;;
18296;SDS011;18066;52.106;5.534;2022-08-21T09:42:21;6.30;;;2.70;;
18296;SDS011;18066;52.106;5.534;2022-08-21T09:45:00;6.10;;;2.72;;
18296;SDS011;18066;52.106;5.534;2022-08-21T09:47:32;9.88;;;2.60;;
18296;SDS011;18066;52.106;5.534;2022-08-21T09:50:08;15.70;;;2.88;;
18296;SDS011;18066;52.106;5.534;2022-08-21T09:52:41;10.95;;;3.47;;
18296;SDS011;18066;52.106;5.534;2022-08-21T09:55:14;10.75;;;3.10;;
18296;SDS011;18066;52.106;5.534;2022-08-21T09:57:58;11.50;;;3.17;;
18296;SDS011;18066;52.106;5.534;2022-08-21T10:00:29;10.50;;;2.97;;
18296;SDS011;18066;52.106;5.534;2022-08-21T10:03:14;10.52;;;2.63;;
18296;SDS011;18066;52.106;5.534;2022-08-21T10:05:52;7.70;;;2.42;;
18296;SDS011;18066;52.106;5.534;2022-08-21T10:08:21;9.82;;;2.53;;
18296;SDS011;18066;52.106;5.534;2022-08-21T10:10:51;9.85;;;2.55;;
18296;SDS011;18066;52.106;5.534;2022-08-21T10:13:23;14.77;;;2.33;;
18296;SDS011;18066;52.106;5.534;2022-08-21T10:16:00;8.02;;;2.78;;
18296;SDS011;18066;52.106;5.534;2022-08-21T10:18:36;9.13;;;2.40;;
18296;SDS011;18066;52.106;5.534;2022-08-21T10:21:10;10.55;;;2.75;;
18296;SDS011;18066;52.106;5.534;2022-08-21T10:23:46;10.00;;;2.40;;
18296;SDS011;18066;52.106;5.534;2022-08-21T10:26:24;10.38;;;2.60;;
18296;SDS011;18066;52.106;5.534;2022-08-21T10:28:59;8.85;;;2.67;;
18296;SDS011;18066;52.106;5.534;2022-08-21T10:31:37;10.32;;;2.75;;
18296;SDS011;18066;52.106;5.534;2022-08-21T10:34:23;6.35;;;2.05;;
18296;SDS011;18066;52.106;5.534;2022-08-21T10:37:04;9.98;;;2.75;;
18296;SDS011;18066;52.106;5.534;2022-08-21T10:39:41;7.20;;;1.83;;
18296;SDS011;18066;52.106;5.534;2022-08-21T10:42:20;9.43;;;2.05;;
18296;SDS011;18066;52.106;5.534;2022-08-21T10:44:59;8.60;;;2.15;;
18296;SDS011;18066;52.106;5.534;2022-08-21T10:47:38;7.47;;;2.03;;
18296;SDS011;18066;52.106;5.534;2022-08-21T10:50:12;5.95;;;1.83;;
18296;SDS011;18066;52.106;5.534;2022-08-21T10:52:56;10.43;;;2.25;;
18296;SDS011;18066;52.106;5.534;2022-08-21T10:55:41;8.82;;;2.28;;
18296;SDS011;18066;52.106;5.534;2022-08-21T10:58:13;8.20;;;1.90;;
18296;SDS011;18066;52.106;5.534;2022-08-21T11:00:46;5.97;;;2.22;;
18296;SDS011;18066;52.106;5.534;2022-08-21T11:03:16;7.20;;;1.95;;
18296;SDS011;18066;52.106;5.534;2022-08-21T11:05:46;5.47;;;1.98;;
18296;SDS011;18066;52.106;5.534;2022-08-21T11:08:20;10.07;;;2.42;;
18296;SDS011;18066;52.106;5.534;2022-08-21T11:10:52;5.57;;;1.90;;
18296;SDS011;18066;52.106;5.534;2022-08-21T11:13:24;7.30;;;2.05;;
18296;SDS011;18066;52.106;5.534;2022-08-21T11:15:55;5.00;;;1.80;;
18296;SDS011;18066;52.106;5.534;2022-08-21T11:18:26;7.95;;;1.95;;
18296;SDS011;18066;52.106;5.534;2022-08-21T11:21:01;6.63;;;1.60;;
18296;SDS011;18066;52.106;5.534;2022-08-21T11:23:36;9.65;;;1.83;;
18296;SDS011;18066;52.106;5.534;2022-08-21T11:26:08;5.65;;;1.85;;
18296;SDS011;18066;52.106;5.534;2022-08-21T11:28:41;7.03;;;1.70;;
18296;SDS011;18066;52.106;5.534;2022-08-21T11:31:17;11.93;;;2.08;;
18296;SDS011;18066;52.106;5.534;2022-08-21T11:33:58;6.05;;;1.73;;
18296;SDS011;18066;52.106;5.534;2022-08-21T11:36:36;7.53;;;1.92;;
18296;SDS011;18066;52.106;5.534;2022-08-21T11:39:12;7.88;;;1.80;;
18296;SDS011;18066;52.106;5.534;2022-08-21T11:41:47;5.68;;;2.10;;
18296;SDS011;18066;52.106;5.534;2022-08-21T11:44:22;5.03;;;1.80;;
18296;SDS011;18066;52.106;5.534;2022-08-21T11:46:56;9.43;;;2.00;;
18296;SDS011;18066;52.106;5.534;2022-08-21T11:49:39;11.23;;;2.33;;
18296;SDS011;18066;52.106;5.534;2022-08-21T11:52:16;6.00;;;1.65;;
18296;SDS011;18066;52.106;5.534;2022-08-21T11:54:48;5.28;;;1.60;;
18296;SDS011;18066;52.106;5.534;2022-08-21T11:57:23;7.82;;;1.98;;
18296;SDS011;18066;52.106;5.534;2022-08-21T11:59:54;6.55;;;1.70;;
18296;SDS011;18066;52.106;5.534;2022-08-21T12:02:28;4.07;;;1.60;;
18296;SDS011;18066;52.106;5.534;2022-08-21T12:05:00;5.60;;;1.50;;
18296;SDS011;18066;52.106;5.534;2022-08-21T12:07:31;10.40;;;1.80;;
18296;SDS011;18066;52.106;5.534;2022-08-21T12:10:03;6.28;;;1.65;;
18296;SDS011;18066;52.106;5.534;2022-08-21T12:12:33;6.93;;;1.52;;
18296;SDS011;18066;52.106;5.534;2022-08-21T12:15:11;4.55;;;1.52;;
18296;SDS011;18066;52.106;5.534;2022-08-21T12:17:51;4.78;;;1.38;;
18296;SDS011;18066;52.106;5.534;2022-08-21T12:20:23;5.30;;;1.52;;
18296;SDS011;18066;52.106;5.534;2022-08-21T12:23:05;2.92;;;1.42;;
18296;SDS011;18066;52.106;5.534;2022-08-21T12:25:44;6.70;;;1.55;;
18296;SDS011;18066;52.106;5.534;2022-08-21T12:28:14;5.53;;;1.40;;
18296;SDS011;18066;52.106;5.534;2022-08-21T12:30:47;2.50;;;1.35;;
18296;SDS011;18066;52.106;5.534;2022-08-21T12:33:19;7.93;;;2.08;;
18296;SDS011;18066;52.106;5.534;2022-08-21T12:35:49;4.80;;;1.75;;
18296;SDS011;18066;52.106;5.534;2022-08-21T12:38:18;6.07;;;2.00;;
18296;SDS011;18066;52.106;5.534;2022-08-21T12:40:52;4.78;;;1.80;;
18296;SDS011;18066;52.106;5.534;2022-08-21T12:43:24;8.00;;;2.15;;
18296;SDS011;18066;52.106;5.534;2022-08-21T12:45:55;4.38;;;1.58;;
18296;SDS011;18066;52.106;5.534;2022-08-21T12:48:25;6.90;;;1.90;;
18296;SDS011;18066;52.106;5.534;2022-08-21T12:50:57;7.03;;;2.10;;
18296;SDS011;18066;52.106;5.534;2022-08-21T12:53:33;7.68;;;2.10;;
18296;SDS011;18066;52.106;5.534;2022-08-21T12:56:09;3.70;;;1.75;;
18296;SDS011;18066;52.106;5.534;2022-08-21T12:58:39;4.97;;;1.80;;
18296;SDS011;18066;52.106;5.534;2022-08-21T13:01:08;4.78;;;1.98;;
18296;SDS011;18066;52.106;5.534;2022-08-21T13:03:42;6.70;;;2.08;;
18296;SDS011;18066;52.106;5.534;2022-08-21T13:06:12;6.05;;;1.65;;
18296;SDS011;18066;52.106;5.534;2022-08-21T13:08:42;5.20;;;1.80;;
18296;SDS011;18066;52.106;5.534;2022-08-21T13:11:12;6.70;;;2.17;;
18296;SDS011;18066;52.106;5.534;2022-08-21T13:13:42;6.18;;;1.70;;
18296;SDS011;18066;52.106;5.534;2022-08-21T13:16:13;7.15;;;1.75;;
18296;SDS011;18066;52.106;5.534;2022-08-21T13:18:51;8.27;;;1.80;;
18296;SDS011;18066;52.106;5.534;2022-08-21T13:21:21;10.48;;;2.33;;
18296;SDS011;18066;52.106;5.534;2022-08-21T13:23:54;3.70;;;1.63;;
18296;SDS011;18066;52.106;5.534;2022-08-21T13:26:22;9.60;;;2.03;;
18296;SDS011;18066;52.106;5.534;2022-08-21T13:28:49;4.57;;;1.50;;
18296;SDS011;18066;52.106;5.534;2022-08-21T13:31:16;8.07;;;1.90;;
18296;SDS011;18066;52.106;5.534;2022-08-21T13:33:46;6.53;;;1.70;;
18296;SDS011;18066;52.106;5.534;2022-08-21T13:36:17;6.55;;;1.65;;
18296;SDS011;18066;52.106;5.534;2022-08-21T13:38:47;6.38;;;2.03;;
18296;SDS011;18066;52.106;5.534;2022-08-21T13:41:19;8.90;;;2.00;;
18296;SDS011;18066;52.106;5.534;2022-08-21T13:43:55;8.32;;;1.95;;
18296;SDS011;18066;52.106;5.534;2022-08-21T13:46:24;10.40;;;1.90;;
18296;SDS011;18066;52.106;5.534;2022-08-21T13:48:54;6.75;;;1.35;;
18296;SDS011;18066;52.106;5.534;2022-08-21T13:51:22;7.43;;;1.92;;
18296;SDS011;18066;52.106;5.534;2022-08-21T13:53:50;2.78;;;1.20;;
18296;SDS011;18066;52.106;5.534;2022-08-21T13:56:24;7.65;;;1.67;;
18296;SDS011;18066;52.106;5.534;2022-08-21T13:58:53;4.00;;;1.67;;
18296;SDS011;18066;52.106;5.534;2022-08-21T14:01:22;9.70;;;1.85;;
18296;SDS011;18066;52.106;5.534;2022-08-21T14:03:52;6.75;;;1.83;;
18296;SDS011;18066;52.106;5.534;2022-08-21T14:06:23;5.20;;;1.60;;
18296;SDS011;18066;52.106;5.534;2022-08-21T14:08:52;5.05;;;1.80;;
18296;SDS011;18066;52.106;5.534;2022-08-21T14:11:23;4.65;;;1.40;;
18296;SDS011;18066;52.106;5.534;2022-08-21T14:13:55;4.32;;;1.60;;
18296;SDS011;18066;52.106;5.534;2022-08-21T14:16:24;4.82;;;1.30;;
18296;SDS011;18066;52.106;5.534;2022-08-21T14:18:53;7.53;;;1.27;;
18296;SDS011;18066;52.106;5.534;2022-08-21T14:21:35;4.22;;;1.00;;
18296;SDS011;18066;52.106;5.534;2022-08-21T14:24:04;6.03;;;1.50;;
18296;SDS011;18066;52.106;5.534;2022-08-21T14:29:11;3.80;;;1.52;;
18296;SDS011;18066;52.106;5.534;2022-08-21T14:31:40;6.95;;;1.63;;
18296;SDS011;18066;52.106;5.534;2022-08-21T14:34:07;5.88;;;1.98;;
18296;SDS011;18066;52.106;5.534;2022-08-21T14:36:41;7.10;;;1.80;;
18296;SDS011;18066;52.106;5.534;2022-08-21T14:39:08;2.47;;;1.60;;
18296;SDS011;18066;52.106;5.534;2022-08-21T14:41:35;7.00;;;1.63;;
18296;SDS011;18066;52.106;5.534;2022-08-21T14:44:03;6.47;;;1.48;;
18296;SDS011;18066;52.106;5.534;2022-08-21T14:46:32;7.40;;;1.90;;
18296;SDS011;18066;52.106;5.534;2022-08-21T14:49:00;6.80;;;1.98;;
18296;SDS011;18066;52.106;5.534;2022-08-21T14:51:27;9.43;;;2.00;;
18296;SDS011;18066;52.106;5.534;2022-08-21T14:53:54;7.78;;;1.95;;
18296;SDS011;18066;52.106;5.534;2022-08-21T14:56:20;5.32;;;1.77;;
18296;SDS011;18066;52.106;5.534;2022-08-21T14:58:48;4.75;;;1.88;;
18296;SDS011;18066;52.106;5.534;2022-08-21T15:01:17;5.70;;;1.60;;
18296;SDS011;18066;52.106;5.534;2022-08-21T15:03:46;8.13;;;1.65;;
18296;SDS011;18066;52.106;5.534;2022-08-21T15:06:14;9.68;;;1.88;;
18296;SDS011;18066;52.106;5.534;2022-08-21T15:08:42;4.35;;;1.45;;
18296;SDS011;18066;52.106;5.534;2022-08-21T15:11:10;4.30;;;1.58;;
18296;SDS011;18066;52.106;5.534;2022-08-21T15:13:39;6.90;;;1.73;;
18296;SDS011;18066;52.106;5.534;2022-08-21T15:16:06;7.47;;;1.98;;
18296;SDS011;18066;52.106;5.534;2022-08-21T15:18:36;7.40;;;1.65;;
18296;SDS011;18066;52.106;5.534;2022-08-21T15:21:04;5.88;;;1.70;;
18296;SDS011;18066;52.106;5.534;2022-08-21T15:23:31;8.30;;;1.90;;
18296;SDS011;18066;52.106;5.534;2022-08-21T15:25:58;6.38;;;1.85;;
18296;SDS011;18066;52.106;5.534;2022-08-21T15:28:24;7.93;;;1.92;;
18296;SDS011;18066;52.106;5.534;2022-08-21T15:30:51;6.80;;;1.83;;
18296;SDS011;18066;52.106;5.534;2022-08-21T15:33:19;3.75;;;1.67;;
18296;SDS011;18066;52.106;5.534;2022-08-21T15:35:46;7.22;;;1.70;;
18296;SDS011;18066;52.106;5.534;2022-08-21T15:38:15;3.80;;;1.30;;
18296;SDS011;18066;52.106;5.534;2022-08-21T15:40:41;4.20;;;1.20;;
18296;SDS011;18066;52.106;5.534;2022-08-21T15:43:10;4.68;;;1.40;;
18296;SDS011;18066;52.106;5.534;2022-08-21T15:45:44;6.70;;;1.67;;
18296;SDS011;18066;52.106;5.534;2022-08-21T15:48:11;5.63;;;1.67;;
18296;SDS011;18066;52.106;5.534;2022-08-21T15:50:38;5.68;;;1.65;;
18296;SDS011;18066;52.106;5.534;2022-08-21T15:53:04;3.33;;;1.60;;
18296;SDS011;18066;52.106;5.534;2022-08-21T15:55:33;7.80;;;2.00;;
18296;SDS011;18066;52.106;5.534;2022-08-21T15:58:00;4.25;;;1.55;;
18296;SDS011;18066;52.106;5.534;2022-08-21T16:00:30;3.40;;;1.40;;
18296;SDS011;18066;52.106;5.534;2022-08-21T16:03:00;4.57;;;1.75;;
18296;SDS011;18066;52.106;5.534;2022-08-21T16:05:30;6.38;;;1.73;;
18296;SDS011;18066;52.106;5.534;2022-08-21T16:07:57;4.18;;;1.50;;
18296;SDS011;18066;52.106;5.534;2022-08-21T16:10:24;2.88;;;1.42;;
18296;SDS011;18066;52.106;5.534;2022-08-21T16:12:53;7.00;;;1.63;;
18296;SDS011;18066;52.106;5.534;2022-08-21T16:15:23;4.07;;;1.40;;
18296;SDS011;18066;52.106;5.534;2022-08-21T16:17:52;4.45;;;1.27;;
18296;SDS011;18066;52.106;5.534;2022-08-21T16:20:20;4.15;;;1.27;;
18296;SDS011;18066;52.106;5.534;2022-08-21T16:22:49;5.53;;;1.67;;
18296;SDS011;18066;52.106;5.534;2022-08-21T16:25:16;6.03;;;1.50;;
18296;SDS011;18066;52.106;5.534;2022-08-21T16:27:44;5.57;;;1.48;;
18296;SDS011;18066;52.106;5.534;2022-08-21T16:30:16;5.05;;;1.48;;
18296;SDS011;18066;52.106;5.534;2022-08-21T16:32:44;10.40;;;1.50;;
18296;SDS011;18066;52.106;5.534;2022-08-21T16:35:12;4.57;;;1.33;;
18296;SDS011;18066;52.106;5.534;2022-08-21T16:37:40;4.43;;;1.73;;
18296;SDS011;18066;52.106;5.534;2022-08-21T16:40:09;6.43;;;1.52;;
18296;SDS011;18066;52.106;5.534;2022-08-21T16:42:36;8.40;;;1.70;;
18296;SDS011;18066;52.106;5.534;2022-08-21T16:45:06;5.38;;;1.48;;
18296;SDS011;18066;52.106;5.534;2022-08-21T16:47:36;6.60;;;1.52;;
18296;SDS011;18066;52.106;5.534;2022-08-21T16:50:03;5.78;;;1.52;;
18296;SDS011;18066;52.106;5.534;2022-08-21T16:52:31;5.28;;;1.63;;
18296;SDS011;18066;52.106;5.534;2022-08-21T16:54:58;4.50;;;1.58;;
18296;SDS011;18066;52.106;5.534;2022-08-21T16:57:24;6.22;;;1.52;;
18296;SDS011;18066;52.106;5.534;2022-08-21T16:59:52;7.10;;;1.20;;
18296;SDS011;18066;52.106;5.534;2022-08-21T17:02:20;6.70;;;1.63;;
18296;SDS011;18066;52.106;5.534;2022-08-21T17:04:54;6.85;;;1.67;;
18296;SDS011;18066;52.106;5.534;2022-08-21T17:07:21;5.50;;;1.40;;
18296;SDS011;18066;52.106;5.534;2022-08-21T17:09:48;3.38;;;1.25;;
18296;SDS011;18066;52.106;5.534;2022-08-21T17:12:15;4.60;;;1.42;;
18296;SDS011;18066;52.106;5.534;2022-08-21T17:14:42;3.15;;;1.17;;
18296;SDS011;18066;52.106;5.534;2022-08-21T17:17:09;7.93;;;2.08;;
18296;SDS011;18066;52.106;5.534;2022-08-21T17:19:36;3.70;;;1.35;;
18296;SDS011;18066;52.106;5.534;2022-08-21T17:22:05;4.03;;;1.38;;
18296;SDS011;18066;52.106;5.534;2022-08-21T17:24:32;4.25;;;1.27;;
18296;SDS011;18066;52.106;5.534;2022-08-21T17:26:59;4.97;;;1.50;;
18296;SDS011;18066;52.106;5.534;2022-08-21T17:29:27;2.95;;;1.35;;
18296;SDS011;18066;52.106;5.534;2022-08-21T17:31:56;6.65;;;1.50;;
18296;SDS011;18066;52.106;5.534;2022-08-21T17:34:23;4.47;;;1.35;;
18296;SDS011;18066;52.106;5.534;2022-08-21T17:36:50;3.50;;;1.35;;
18296;SDS011;18066;52.106;5.534;2022-08-21T17:39:19;3.38;;;1.40;;
18296;SDS011;18066;52.106;5.534;2022-08-21T17:41:45;4.70;;;1.70;;
18296;SDS011;18066;52.106;5.534;2022-08-21T17:44:12;5.60;;;1.70;;
18296;SDS011;18066;52.106;5.534;2022-08-21T17:46:42;6.70;;;1.70;;
18296;SDS011;18066;52.106;5.534;2022-08-21T17:49:08;4.38;;;1.50;;
18296;SDS011;18066;52.106;5.534;2022-08-21T17:51:36;2.45;;;1.38;;
18296;SDS011;18066;52.106;5.534;2022-08-21T17:54:03;6.30;;;2.00;;
18296;SDS011;18066;52.106;5.534;2022-08-21T17:56:31;7.80;;;2.45;;